Time;durP1;ratioP1;P1;durP2;ratioP2;P2;SDS_P1;SDS_P2;PMS_P1;PMS_P2;Temp;Humidity;BMP_temperature;BMP_pressure;BME280_temperature;BME280_humidity;BME280_pressure;Samples;Min_cycle;Max_cycle;Signal;HPM_P1;HPM_P2
2024/02/29 00:00:06;;;;;;;;;;;;;;;17.39;48.18;101626.19;5036186;28;1075;-56
2024/02/29 00:02:32;;;;;;;;;;;;;;;16.71;48.57;101618.19;5036348;28;1043;-54
2024/02/29 00:04:58;;;;;;;;;;;;;;;16.50;47.72;101616.25;5035857;28;897;-54
2024/02/29 00:07:23;;;;;;;;;;;;;;;17.87;47.48;101611.81;5035551;28;1154;-56
2024/02/29 00:09:49;;;;;;;;;;;;;;;17.04;48.89;101610.94;5024474;28;1001;-54
2024/02/29 00:12:14;;;;;;;;;;;;;;;16.72;48.03;101614.34;5035774;28;1119;-56
2024/02/29 00:14:41;;;;;;;;;;;;;;;17.87;47.42;101611.81;5035959;28;1110;-53
2024/02/29 00:17:06;;;;;;;;;;;;;;;17.05;48.37;101611.78;5035667;28;1902;-55
2024/02/29 00:19:32;;;;;;;;;;;;;;;16.66;48.59;101595.31;5036015;28;1179;-53
2024/02/29 00:21:58;;;;;;;;;;;;;;;18.31;46.80;101597.84;5036292;28;1039;-55
2024/02/29 00:24:23;;;;;;;;;;;;;;;17.15;48.36;101605.56;5036199;28;1087;-55
2024/02/29 00:26:49;;;;;;;;;;;;;;;16.71;48.03;101606.38;5022933;28;1273;-54
2024/02/29 00:29:14;;;;;;;;;;;;;;;17.40;48.39;101605.00;5035897;28;889;-55
2024/02/29 00:31:43;;;;;;;;;;;;;;;16.89;48.53;101603.34;5035803;28;1466;-52
2024/02/29 00:34:09;;;;;;;;;;;;;;;16.68;47.94;101593.16;5035701;28;1099;-57
2024/02/29 00:36:35;;;;;;;;;;;;;;;16.41;47.21;101596.59;5039600;28;1965;-57
2024/02/29 00:39:00;;;;;;;;;;;;;;;16.95;48.06;101606.97;5039374;28;1095;-57
2024/02/29 00:41:26;;;;;;;;;;;;;;;17.94;47.34;101604.19;5035292;28;947;-57
2024/02/29 00:43:51;;;;;;;;;;;;;;;16.85;48.40;101598.59;5020415;28;1079;-57
2024/02/29 00:46:17;;;;;;;;;;;;;;;16.84;48.54;101586.75;5019790;28;1094;-57
2024/02/29 00:48:42;;;;;;;;;;;;;;;18.27;46.69;101589.28;5020085;28;1127;-57
2024/02/29 00:51:08;;;;;;;;;;;;;;;17.06;48.30;101595.03;5032981;28;1075;-57
2024/02/29 00:53:33;;;;;;;;;;;;;;;16.72;47.93;101586.91;5034731;28;890;-57
2024/02/29 00:55:59;;;;;;;;;;;;;;;16.60;47.12;101597.16;5031881;28;1905;-57
2024/02/29 00:58:24;;;;;;;;;;;;;;;16.96;47.86;101591.31;5015740;28;1202;-57
2024/02/29 01:00:49;;;;;;;;;;;;;;;17.12;48.34;101589.59;5023147;28;1187;-57
2024/02/29 01:03:15;;;;;;;;;;;;;;;16.91;48.72;101589.34;5039134;28;1149;-57
2024/02/29 01:05:40;;;;;;;;;;;;;;;18.47;46.67;101588.56;5035467;28;1151;-57
2024/02/29 01:08:06;;;;;;;;;;;;;;;17.22;48.33;101584.19;5028940;28;1280;-58
2024/02/29 01:10:31;;;;;;;;;;;;;;;16.88;47.78;101590.69;5039280;28;1217;-57
2024/02/29 01:12:57;;;;;;;;;;;;;;;16.69;47.20;101587.41;5038994;28;1166;-55
2024/02/29 01:15:23;;;;;;;;;;;;;;;17.35;47.96;101589.31;5038958;28;1055;-56
2024/02/29 01:17:50;;;;;;;;;;;;;;;18.36;46.75;101581.34;5038387;28;1910;-56
2024/02/29 01:20:16;;;;;;;;;;;;;;;17.10;48.66;101582.44;5036308;28;1106;-56
2024/02/29 01:22:41;;;;;;;;;;;;;;;16.72;48.28;101578.66;5028109;28;1079;-56
2024/02/29 01:25:07;;;;;;;;;;;;;;;17.46;48.28;101582.00;5038370;28;1091;-56
2024/02/29 01:27:32;;;;;;;;;;;;;;;16.83;48.37;101595.25;5038532;28;1186;-54
2024/02/29 01:29:58;;;;;;;;;;;;;;;17.74;47.85;101583.63;5038135;28;886;-56
2024/02/29 01:32:23;;;;;;;;;;;;;;;17.28;48.55;101589.50;5038706;28;1066;-57
2024/02/29 01:34:49;;;;;;;;;;;;;;;16.89;47.92;101592.34;5038622;28;1055;-56
2024/02/29 01:37:14;;;;;;;;;;;;;;;16.69;47.47;101575.56;5025344;28;1910;-59
2024/02/29 01:39:41;;;;;;;;;;;;;;;17.16;48.17;101579.75;5038727;28;1145;-59
2024/02/29 01:42:07;;;;;;;;;;;;;;;17.79;47.58;101586.44;5038260;28;1096;-59
2024/02/29 01:44:32;;;;;;;;;;;;;;;16.99;48.34;101588.91;5038186;28;1086;-59
2024/02/29 01:46:58;;;;;;;;;;;;;;;16.75;47.57;101569.06;5037843;28;1219;-59
2024/02/29 01:49:23;;;;;;;;;;;;;;;16.55;46.86;101572.38;5024743;28;1102;-58
2024/02/29 01:51:49;;;;;;;;;;;;;;;16.90;47.62;101583.03;5036956;28;1199;-59
2024/02/29 01:54:14;;;;;;;;;;;;;;;17.82;47.54;101578.72;5038322;28;945;-58
2024/02/29 01:56:40;;;;;;;;;;;;;;;16.87;48.87;101574.44;5038141;28;1906;-58
2024/02/29 01:59:06;;;;;;;;;;;;;;;16.55;48.23;101586.94;5033776;28;1194;-58
2024/02/29 02:01:32;;;;;;;;;;;;;;;17.47;48.07;101580.06;5026608;28;1203;-58
2024/02/29 02:03:58;;;;;;;;;;;;;;;17.37;48.44;101570.63;5031906;28;1056;-58
2024/02/29 02:06:24;;;;;;;;;;;;;;;16.74;48.56;101579.22;5037792;28;892;-58
2024/02/29 02:08:50;;;;;;;;;;;;;;;18.29;47.00;101576.06;5024830;28;1080;-58
2024/02/29 02:11:15;;;;;;;;;;;;;;;17.18;48.41;101589.41;5037965;28;1059;-59
2024/02/29 02:13:41;;;;;;;;;;;;;;;16.75;47.89;101577.31;5037992;28;1163;-59
2024/02/29 02:16:09;;;;;;;;;;;;;;;17.96;47.71;101579.97;5037799;28;1906;-60
2024/02/29 02:18:35;;;;;;;;;;;;;;;17.09;48.27;101586.25;5037769;28;952;-60
2024/02/29 02:21:01;;;;;;;;;;;;;;;16.74;47.79;101575.66;5037410;28;1145;-60
2024/02/29 02:23:26;;;;;;;;;;;;;;;16.50;47.45;101580.56;5037302;28;1071;-60
2024/02/29 02:25:57;;;;;;;;;;;;;;;16.37;46.83;101574.34;5037417;28;1125;-57
2024/02/29 02:28:23;;;;;;;;;;;;;;;16.25;46.27;101587.31;5037505;28;1103;-57
2024/02/29 02:30:48;;;;;;;;;;;;;;;17.78;47.53;101587.53;5037387;28;1044;-57
2024/02/29 02:33:14;;;;;;;;;;;;;;;17.05;48.96;101590.59;5037486;28;1079;-57
2024/02/29 02:35:39;;;;;;;;;;;;;;;16.68;48.15;101583.00;5037368;28;1126;-57
2024/02/29 02:38:05;;;;;;;;;;;;;;;16.53;47.41;101585.53;5037620;28;1910;-58
2024/02/29 02:40:31;;;;;;;;;;;;;;;17.33;47.96;101577.72;5037035;28;1067;-58
2024/02/29 02:42:57;;;;;;;;;;;;;;;17.51;47.76;101593.03;5037063;28;980;-59
2024/02/29 02:45:22;;;;;;;;;;;;;;;17.20;48.95;101597.38;5024584;28;1103;-58
2024/02/29 02:47:48;;;;;;;;;;;;;;;18.76;46.24;101593.69;5037258;28;1031;-58
2024/02/29 02:50:14;;;;;;;;;;;;;;;17.58;47.99;101585.41;5037002;28;1060;-57
2024/02/29 02:52:39;;;;;;;;;;;;;;;17.01;48.09;101600.47;5036464;28;1071;-58
2024/02/29 02:55:05;;;;;;;;;;;;;;;16.77;47.33;101595.22;5037128;28;1001;-57
2024/02/29 02:57:30;;;;;;;;;;;;;;;16.65;46.89;101596.38;5036827;28;1898;-57
2024/02/29 02:59:56;;;;;;;;;;;;;;;17.03;47.61;101598.28;5033267;28;1102;-57
2024/02/29 03:02:22;;;;;;;;;;;;;;;18.05;47.44;101597.66;5037185;28;1063;-57
2024/02/29 03:04:47;;;;;;;;;;;;;;;16.99;48.73;101597.13;5019465;28;1174;-58
2024/02/29 03:07:13;;;;;;;;;;;;;;;16.74;47.99;101594.88;5036560;28;1138;-58
2024/02/29 03:09:38;;;;;;;;;;;;;;;16.60;47.21;101586.19;5036879;28;1062;-57
2024/02/29 03:12:04;;;;;;;;;;;;;;;17.10;48.20;101584.38;5036873;28;1048;-57
2024/02/29 03:14:29;;;;;;;;;;;;;;;17.14;48.66;101590.16;5031417;28;1119;-58
2024/02/29 03:16:55;;;;;;;;;;;;;;;16.70;47.97;101580.81;5017445;28;1894;-57
2024/02/29 03:19:20;;;;;;;;;;;;;;;16.45;47.64;101585.97;5036735;28;1207;-58
2024/02/29 03:21:46;;;;;;;;;;;;;;;17.82;47.71;101581.47;5036592;28;1075;-57
2024/02/29 03:24:12;;;;;;;;;;;;;;;17.47;48.24;101580.88;5036518;28;1095;-57
2024/02/29 03:26:37;;;;;;;;;;;;;;;16.85;48.46;101587.59;5036766;28;1132;-57
2024/02/29 03:29:02;;;;;;;;;;;;;;;16.56;47.65;101579.53;5036431;28;1135;-58
2024/02/29 03:31:28;;;;;;;;;;;;;;;16.41;47.01;101575.50;5036775;28;1234;-59
2024/02/29 03:33:53;;;;;;;;;;;;;;;16.87;47.77;101577.19;5036442;28;1122;-59
2024/02/29 03:36:19;;;;;;;;;;;;;;;17.94;47.25;101571.16;5036601;28;1965;-58
2024/02/29 03:38:45;;;;;;;;;;;;;;;16.87;48.73;101585.41;5036438;28;1163;-58
2024/02/29 03:41:10;;;;;;;;;;;;;;;16.65;47.79;101585.41;5036468;28;949;-58
2024/02/29 03:43:36;;;;;;;;;;;;;;;16.36;47.42;101588.31;5036020;28;1184;-57
2024/02/29 03:46:01;;;;;;;;;;;;;;;17.89;47.55;101584.84;5035739;28;1121;-55
2024/02/29 03:48:28;;;;;;;;;;;;;;;17.01;48.39;101591.38;5031988;28;1034;-53
2024/02/29 03:50:53;;;;;;;;;;;;;;;16.67;48.02;101577.75;5036409;28;1198;-52
2024/02/29 03:53:19;;;;;;;;;;;;;;;16.48;47.46;101586.31;5036006;28;1174;-56
2024/02/29 03:55:47;;;;;;;;;;;;;;;16.28;46.89;101586.81;5032384;28;1321;-52
2024/02/29 03:58:12;;;;;;;;;;;;;;;17.37;47.99;101586.28;5036142;28;2315;-52
2024/02/29 04:00:38;;;;;;;;;;;;;;;16.84;48.68;101588.69;5035295;28;1015;-52
2024/02/29 04:03:04;;;;;;;;;;;;;;;16.54;48.19;101599.00;5024585;28;1023;-54
2024/02/29 04:05:29;;;;;;;;;;;;;;;16.41;47.42;101594.72;5022926;28;2397;-52
2024/02/29 04:08:00;;;;;;;;;;;;;;;16.31;46.67;101586.31;5035279;28;1104;-53
2024/02/29 04:10:27;;;;;;;;;;;;;;;17.45;47.56;101589.41;5037396;28;961;-52
2024/02/29 04:12:53;;;;;;;;;;;;;;;16.98;48.64;101594.66;5039708;28;1003;-53
2024/02/29 04:15:18;;;;;;;;;;;;;;;16.55;48.28;101591.59;5039318;28;1127;-52
2024/02/29 04:17:44;;;;;;;;;;;;;;;17.14;48.73;101601.16;5039319;28;1910;-51
2024/02/29 04:20:09;;;;;;;;;;;;;;;18.46;46.41;101592.41;5039744;28;1106;-52
2024/02/29 04:22:35;;;;;;;;;;;;;;;17.12;48.77;101600.59;5039487;28;1138;-52
2024/02/29 04:25:00;;;;;;;;;;;;;;;16.72;48.19;101603.38;5039661;28;1082;-52
2024/02/29 04:27:26;;;;;;;;;;;;;;;16.49;47.79;101609.09;5033602;28;997;-53
2024/02/29 04:29:51;;;;;;;;;;;;;;;16.89;48.00;101613.50;5031803;28;1083;-50
2024/02/29 04:32:17;;;;;;;;;;;;;;;18.27;47.16;101610.47;5039562;28;1099;-51
2024/02/29 04:34:43;;;;;;;;;;;;;;;17.10;48.53;101626.41;5039487;28;2553;-52
2024/02/29 04:37:09;;;;;;;;;;;;;;;16.68;48.06;101626.94;5039301;28;1906;-50
2024/02/29 04:39:34;;;;;;;;;;;;;;;16.50;47.65;101621.75;5039938;28;1151;-58
2024/02/29 04:42:00;;;;;;;;;;;;;;;17.85;47.80;101624.97;5037164;28;1086;-59
2024/02/29 04:44:25;;;;;;;;;;;;;;;16.88;48.68;101631.03;5039574;28;1134;-59
2024/02/29 04:46:51;;;;;;;;;;;;;;;16.62;47.82;101632.59;5039126;28;1139;-62
2024/02/29 04:49:17;;;;;;;;;;;;;;;17.41;48.06;101632.25;5039382;28;1063;-59
2024/02/29 04:51:42;;;;;;;;;;;;;;;16.99;48.54;101635.59;5038313;28;1184;-59
2024/02/29 04:54:08;;;;;;;;;;;;;;;17.06;48.54;101632.69;5038370;28;1154;-57
2024/02/29 04:56:35;;;;;;;;;;;;;;;17.90;47.45;101630.53;5019673;28;1906;-57
2024/02/29 04:59:00;;;;;;;;;;;;;;;16.87;48.56;101649.44;5031881;28;1036;-60
2024/02/29 05:01:26;;;;;;;;;;;;;;;16.64;47.62;101639.50;5033138;28;1153;-60
2024/02/29 05:03:51;;;;;;;;;;;;;;;16.48;46.96;101649.44;5031529;28;1139;-63
2024/02/29 05:06:17;;;;;;;;;;;;;;;17.82;47.74;101647.50;5037577;28;2171;-63
2024/02/29 05:08:43;;;;;;;;;;;;;;;17.36;48.45;101650.59;5039038;28;1015;-59
2024/02/29 05:11:09;;;;;;;;;;;;;;;16.79;48.45;101649.88;5038710;28;896;-57
2024/02/29 05:13:35;;;;;;;;;;;;;;;17.76;46.84;101646.63;5026044;28;1055;-61
2024/02/29 05:16:07;;;;;;;;;;;;;;;17.28;47.50;101651.91;5025240;28;1167;-60
2024/02/29 05:18:32;;;;;;;;;;;;;;;16.92;48.66;101654.19;5038731;28;1080;-54
2024/02/29 05:20:58;;;;;;;;;;;;;;;16.62;49.07;101658.16;5037625;28;1055;-63
2024/02/29 05:23:23;;;;;;;;;;;;;;;16.40;49.59;101650.69;5038156;28;1099;-61
2024/02/29 05:25:49;;;;;;;;;;;;;;;16.31;49.71;101656.84;5038439;28;1024;-61
2024/02/29 05:28:15;;;;;;;;;;;;;;;16.06;50.60;101650.69;5037018;28;1102;-57
2024/02/29 05:30:41;;;;;;;;;;;;;;;16.07;50.28;101655.13;5038011;28;1134;-60
2024/02/29 05:33:07;;;;;;;;;;;;;;;15.95;50.50;101650.75;5038739;28;869;-62
2024/02/29 05:35:33;;;;;;;;;;;;;;;15.73;51.03;101652.28;5035628;28;2576;-65
2024/02/29 05:37:58;;;;;;;;;;;;;;;15.62;51.44;101653.19;5038026;28;1989;-60
2024/02/29 05:40:24;;;;;;;;;;;;;;;15.56;51.51;101651.44;5037642;28;1037;-57
2024/02/29 05:42:50;;;;;;;;;;;;;;;15.44;51.75;101654.19;5038120;28;1113;-59
2024/02/29 05:45:15;;;;;;;;;;;;;;;15.33;52.02;101653.19;5038200;28;976;-60
2024/02/29 05:47:41;;;;;;;;;;;;;;;15.29;52.11;101645.69;5038368;28;1257;-63
2024/02/29 05:50:07;;;;;;;;;;;;;;;16.89;48.46;101651.97;5033252;28;1088;-58
2024/02/29 05:52:34;;;;;;;;;;;;;;;17.16;47.36;101645.72;5029691;28;1147;-58
2024/02/29 05:55:00;;;;;;;;;;;;;;;16.32;49.68;101650.28;5037397;28;1038;-61
2024/02/29 05:57:30;;;;;;;;;;;;;;;15.94;50.54;101644.47;5026964;28;1917;-61
2024/02/29 05:59:55;;;;;;;;;;;;;;;15.67;51.23;101641.47;5037063;28;1024;-63
2024/02/29 06:02:21;;;;;;;;;;;;;;;15.49;51.57;101635.13;5037823;28;1203;-57
2024/02/29 06:04:46;;;;;;;;;;;;;;;16.57;49.35;101645.16;5037753;28;2362;-58
2024/02/29 06:07:13;;;;;;;;;;;;;;;17.57;46.31;101648.91;5037981;28;1116;-58
2024/02/29 06:09:41;;;;;;;;;;;;;;;16.53;48.93;101652.25;5038088;28;1039;-62
2024/02/29 06:12:07;;;;;;;;;;;;;;;16.07;50.05;101655.13;5037902;28;1078;-58
2024/02/29 06:14:33;;;;;;;;;;;;;;;15.89;50.47;101655.31;5037501;28;1278;-61
2024/02/29 06:16:58;;;;;;;;;;;;;;;15.69;51.20;101658.50;5037448;28;1914;-58
2024/02/29 06:19:24;;;;;;;;;;;;;;;15.65;51.30;101663.63;5037028;28;1011;-57
2024/02/29 06:21:49;;;;;;;;;;;;;;;17.19;47.65;101664.44;5037431;28;1099;-61
2024/02/29 06:24:18;;;;;;;;;;;;;;;16.99;47.77;101673.25;5037098;28;1052;-62
2024/02/29 06:26:44;;;;;;;;;;;;;;;16.23;49.77;101672.66;5037834;28;1051;-62
2024/02/29 06:29:09;;;;;;;;;;;;;;;16.00;50.24;101667.31;5037411;28;1050;-59
2024/02/29 06:31:35;;;;;;;;;;;;;;;15.73;50.99;101668.72;5037453;28;1261;-56
2024/02/29 06:34:00;;;;;;;;;;;;;;;15.59;51.20;101672.84;5037280;28;1069;-57
2024/02/29 06:36:26;;;;;;;;;;;;;;;17.00;48.06;101670.25;5034716;28;2854;-57
2024/02/29 06:38:51;;;;;;;;;;;;;;;17.08;47.59;101658.81;5037056;28;1016;-56
2024/02/29 06:41:17;;;;;;;;;;;;;;;16.24;49.72;101657.00;5037405;28;1187;-52
2024/02/29 06:43:42;;;;;;;;;;;;;;;15.96;50.26;101658.75;5036422;28;1158;-58
2024/02/29 06:46:10;;;;;;;;;;;;;;;15.79;50.98;101658.72;5036505;28;1195;-50
2024/02/29 06:48:35;;;;;;;;;;;;;;;15.65;51.30;101655.41;5035327;28;1031;-55
2024/02/29 06:51:02;;;;;;;;;;;;;;;16.20;49.93;101661.34;5037156;28;1130;-52
2024/02/29 06:53:30;;;;;;;;;;;;;;;17.54;46.42;101663.19;5030820;28;1088;-51
2024/02/29 06:55:56;;;;;;;;;;;;;;;16.69;48.46;101664.31;5036761;28;1209;-58
2024/02/29 06:58:22;;;;;;;;;;;;;;;16.16;49.75;101663.75;5023891;28;1891;-58
2024/02/29 07:00:47;;;;;;;;;;;;;;;15.88;50.73;101659.16;5029460;28;1059;-58
2024/02/29 07:03:13;;;;;;;;;;;;;;;15.73;50.95;101660.50;5030680;28;1239;-58
2024/02/29 07:05:40;;;;;;;;;;;;;;;15.52;51.38;101667.53;5036803;28;1257;-57
2024/02/29 07:08:06;;;;;;;;;;;;;;;16.76;48.63;101662.19;5034566;28;1059;-55
2024/02/29 07:10:31;;;;;;;;;;;;;;;17.77;46.16;101651.06;5036795;28;1328;-55
2024/02/29 07:12:57;;;;;;;;;;;;;;;16.78;48.21;101659.19;5036817;28;1135;-54
2024/02/29 07:15:23;;;;;;;;;;;;;;;16.23;49.79;101660.84;5030342;28;1153;-52
2024/02/29 07:17:48;;;;;;;;;;;;;;;15.91;50.51;101654.00;5029393;28;1909;-55
2024/02/29 07:20:14;;;;;;;;;;;;;;;15.81;50.67;101661.22;5036513;28;1107;-59
2024/02/29 07:22:40;;;;;;;;;;;;;;;15.59;51.17;101653.66;5036200;28;1264;-58
2024/02/29 07:25:07;;;;;;;;;;;;;;;15.61;51.34;101653.41;5035991;28;1012;-57
2024/02/29 07:27:35;;;;;;;;;;;;;;;17.21;47.35;101654.03;5036931;28;1210;-61
2024/02/29 07:30:01;;;;;;;;;;;;;;;17.26;47.16;101657.66;5036578;28;1151;-59
2024/02/29 07:32:26;;;;;;;;;;;;;;;16.45;49.01;101662.84;5036324;28;825;-57
2024/02/29 07:34:52;;;;;;;;;;;;;;;16.09;50.19;101660.34;5035620;28;1067;-60
2024/02/29 07:37:17;;;;;;;;;;;;;;;15.81;50.95;101663.97;5024646;28;2007;-58
2024/02/29 07:39:43;;;;;;;;;;;;;;;15.68;51.24;101665.91;5035688;28;1235;-59
2024/02/29 07:42:09;;;;;;;;;;;;;;;16.71;48.81;101664.88;5036753;28;1159;-58
2024/02/29 07:44:35;;;;;;;;;;;;;;;17.40;46.88;101652.59;5034317;28;1199;-58
2024/02/29 07:47:00;;;;;;;;;;;;;;;16.43;48.97;101652.09;5036373;28;949;-61
2024/02/29 07:49:26;;;;;;;;;;;;;;;16.08;50.14;101648.53;5035895;28;1091;-56
2024/02/29 07:51:54;;;;;;;;;;;;;;;15.77;50.98;101649.03;5035011;28;1188;-58
2024/02/29 07:54:20;;;;;;;;;;;;;;;15.70;51.12;101646.47;5036296;28;1110;-60
2024/02/29 07:56:45;;;;;;;;;;;;;;;17.23;47.58;101640.84;5036291;28;1981;-60
2024/02/29 07:59:11;;;;;;;;;;;;;;;17.23;47.32;101624.34;5036310;28;1043;-60
2024/02/29 08:01:36;;;;;;;;;;;;;;;16.36;49.47;101627.56;5036427;28;1082;-56
2024/02/29 08:04:02;;;;;;;;;;;;;;;16.09;50.20;101627.44;5024114;28;1123;-57
2024/02/29 08:06:27;;;;;;;;;;;;;;;15.82;51.04;101629.97;5035809;28;1098;-57
2024/02/29 08:08:53;;;;;;;;;;;;;;;15.63;51.47;101635.66;5035586;28;914;-56
2024/02/29 08:11:18;;;;;;;;;;;;;;;15.49;51.86;101646.09;5036030;28;1055;-57
2024/02/29 08:13:44;;;;;;;;;;;;;;;16.91;48.35;101641.53;5023062;28;1067;-55
2024/02/29 08:16:10;;;;;;;;;;;;;;;17.51;46.62;101641.72;5035784;28;1901;-58
2024/02/29 08:18:35;;;;;;;;;;;;;;;16.47;49.33;101658.75;5028612;28;1102;-57
2024/02/29 08:21:03;;;;;;;;;;;;;;;16.06;50.38;101658.09;5034471;28;1206;-57
2024/02/29 08:23:29;;;;;;;;;;;;;;;15.88;50.68;101653.69;5035862;28;1078;-57
2024/02/29 08:25:55;;;;;;;;;;;;;;;15.64;51.47;101662.00;5035770;28;1150;-58
2024/02/29 08:28:20;;;;;;;;;;;;;;;15.53;51.51;101671.13;5036143;28;1116;-55
2024/02/29 08:30:46;;;;;;;;;;;;;;;16.92;48.25;101668.75;5035733;28;1064;-57
2024/02/29 08:33:11;;;;;;;;;;;;;;;17.32;47.28;101666.81;5035876;28;892;-58
2024/02/29 08:35:38;;;;;;;;;;;;;;;16.40;49.47;101663.59;5035773;28;1082;-57
2024/02/29 08:38:04;;;;;;;;;;;;;;;15.98;50.36;101673.06;5035533;28;1918;-58
2024/02/29 08:40:29;;;;;;;;;;;;;;;15.74;50.99;101662.19;5034521;28;1108;-57
2024/02/29 08:42:55;;;;;;;;;;;;;;;15.60;51.48;101665.47;5036116;28;1059;-55
2024/02/29 08:45:20;;;;;;;;;;;;;;;16.32;49.82;101664.00;5035601;28;1179;-57
2024/02/29 08:47:47;;;;;;;;;;;;;;;17.59;46.45;101666.81;5035772;28;1013;-56
2024/02/29 08:50:13;;;;;;;;;;;;;;;16.73;48.35;101659.97;5028917;28;1095;-57
2024/02/29 08:52:40;;;;;;;;;;;;;;;16.19;49.91;101649.53;5029378;28;1051;-57
2024/02/29 08:55:05;;;;;;;;;;;;;;;15.87;50.93;101652.00;5035659;28;1099;-56
2024/02/29 08:57:31;;;;;;;;;;;;;;;15.64;51.29;101661.16;5038682;28;1898;-57
2024/02/29 08:59:56;;;;;;;;;;;;;;;15.50;51.85;101657.88;5026478;28;1094;-56
2024/02/29 09:02:22;;;;;;;;;;;;;;;16.63;48.97;101662.53;5036510;28;1139;-57
2024/02/29 09:04:48;;;;;;;;;;;;;;;17.69;46.32;101660.59;5039064;28;1047;-58
2024/02/29 09:07:14;;;;;;;;;;;;;;;16.67;48.79;101660.13;5038571;28;1058;-58
2024/02/29 09:09:41;;;;;;;;;;;;;;;16.16;49.85;101650.03;5038759;28;915;-57
2024/02/29 09:12:09;;;;;;;;;;;;;;;15.86;50.80;101655.81;5038527;28;1153;-55
2024/02/29 09:14:36;;;;;;;;;;;;;;;15.72;51.22;101647.91;5038897;28;1139;-58
2024/02/29 09:17:01;;;;;;;;;;;;;;;16.83;48.76;101641.94;5038636;28;1893;-58
2024/02/29 09:19:26;;;;;;;;;;;;;;;17.54;46.79;101642.00;5038681;28;1040;-61
2024/02/29 09:21:52;;;;;;;;;;;;;;;16.55;49.25;101652.00;5038593;28;934;-58
2024/02/29 09:24:18;;;;;;;;;;;;;;;16.11;50.07;101652.69;5029631;28;1159;-59
2024/02/29 09:26:43;;;;;;;;;;;;;;;15.87;51.07;101646.53;5035113;28;1051;-60
2024/02/29 09:29:09;;;;;;;;;;;;;;;15.70;51.34;101650.03;5025088;28;1075;-57
2024/02/29 09:31:34;;;;;;;;;;;;;;;16.24;50.07;101652.38;5037223;28;1175;-57
2024/02/29 09:34:00;;;;;;;;;;;;;;;17.58;46.56;101653.31;5038382;28;1278;-56
2024/02/29 09:36:27;;;;;;;;;;;;;;;16.75;48.69;101657.78;5038492;28;1909;-58
2024/02/29 09:38:53;;;;;;;;;;;;;;;16.16;50.00;101646.44;5038029;28;1087;-57
2024/02/29 09:41:19;;;;;;;;;;;;;;;15.98;50.47;101648.38;5038471;28;1047;-58
2024/02/29 09:43:45;;;;;;;;;;;;;;;15.74;51.32;101653.94;5025200;28;1140;-58
2024/02/29 09:46:11;;;;;;;;;;;;;;;16.06;50.44;101647.97;5038196;28;949;-59
2024/02/29 09:48:38;;;;;;;;;;;;;;;17.48;47.06;101647.72;5038376;28;1116;-58
2024/02/29 09:51:03;;;;;;;;;;;;;;;17.06;47.81;101644.47;5037900;28;1047;-58
2024/02/29 09:53:29;;;;;;;;;;;;;;;16.37;49.60;101651.19;5037077;28;1195;-57
2024/02/29 09:55:56;;;;;;;;;;;;;;;16.02;50.63;101645.94;5038263;28;1163;-57
2024/02/29 09:58:21;;;;;;;;;;;;;;;15.88;50.71;101637.22;5038065;28;1909;-59
2024/02/29 10:00:47;;;;;;;;;;;;;;;15.65;51.48;101638.97;5037885;28;1079;-57
2024/02/29 10:03:16;;;;;;;;;;;;;;;16.83;48.79;101641.94;5030654;28;1098;-56
2024/02/29 10:05:42;;;;;;;;;;;;;;;17.51;46.69;101638.97;5032126;28;1139;-56
2024/02/29 10:08:08;;;;;;;;;;;;;;;16.52;49.41;101641.53;5034634;28;1091;-58
2024/02/29 10:10:34;;;;;;;;;;;;;;;16.05;50.35;101645.47;5031710;28;1169;-61
2024/02/29 10:12:59;;;;;;;;;;;;;;;15.86;50.99;101650.34;5037266;28;1501;-60
2024/02/29 10:15:28;;;;;;;;;;;;;;;15.62;51.54;101642.22;5029624;28;1372;-64
2024/02/29 10:17:55;;;;;;;;;;;;;;;15.53;51.88;101639.03;5022351;28;1902;-59
2024/02/29 10:20:21;;;;;;;;;;;;;;;17.13;48.10;101640.72;5037082;28;1484;-52
2024/02/29 10:22:48;;;;;;;;;;;;;;;17.30;47.22;101635.97;5024806;28;1043;-56
2024/02/29 10:25:14;;;;;;;;;;;;;;;16.48;49.16;101629.38;5037799;28;1120;-57
2024/02/29 10:27:40;;;;;;;;;;;;;;;16.13;50.39;101619.50;5037676;28;1047;-59
2024/02/29 10:30:12;;;;;;;;;;;;;;;15.87;50.91;101622.66;5036780;28;1143;-60
2024/02/29 10:32:37;;;;;;;;;;;;;;;15.64;51.49;101615.38;5033138;28;1127;-59
2024/02/29 10:35:16;;;;;;;;;;;;;;;16.34;50.17;101615.16;5037288;28;1047;-56
2024/02/29 10:37:41;;;;;;;;;;;;;;;17.67;46.43;101607.78;5037340;28;1898;-59
2024/02/29 10:40:07;;;;;;;;;;;;;;;16.71;48.74;101612.69;5036758;28;1059;-58
2024/02/29 10:42:33;;;;;;;;;;;;;;;16.17;50.14;101602.31;5037148;28;1152;-59
2024/02/29 10:44:59;;;;;;;;;;;;;;;15.96;50.83;101608.53;5036153;28;1348;-56
2024/02/29 10:47:25;;;;;;;;;;;;;;;15.74;51.26;101606.50;5023668;28;1193;-59
2024/02/29 10:49:51;;;;;;;;;;;;;;;15.55;51.70;101608.63;5017521;28;1091;-59
2024/02/29 10:52:22;;;;;;;;;;;;;;;16.95;48.53;101596.00;5049175;28;1094;-59
2024/02/29 10:54:57;;;;;;;;;;;;;;;17.42;47.15;101589.94;5017953;28;1202;-62
2024/02/29 10:57:25;;;;;;;;;;;;;;;16.42;49.37;101593.63;5035013;28;1971;-58
2024/02/29 10:59:51;;;;;;;;;;;;;;;16.03;50.66;101593.59;5037239;28;1059;-61
2024/02/29 11:02:17;;;;;;;;;;;;;;;15.92;51.12;101583.50;5036650;28;1213;-64
2024/02/29 11:04:43;;;;;;;;;;;;;;;15.70;51.52;101580.66;5036660;28;1170;-58
2024/02/29 11:07:08;;;;;;;;;;;;;;;15.85;51.59;101589.19;5036859;28;1043;-59
2024/02/29 11:09:33;;;;;;;;;;;;;;;17.36;47.38;101581.88;5028208;28;1161;-58
2024/02/29 11:12:08;;;;;;;;;;;;;;;17.13;48.07;101569.28;5035394;28;1135;-60
2024/02/29 11:14:35;;;;;;;;;;;;;;;16.44;49.69;101585.16;5032538;28;1340;-58
2024/02/29 11:17:01;;;;;;;;;;;;;;;16.01;50.91;101579.28;5032023;28;1973;-56
2024/02/29 11:19:27;;;;;;;;;;;;;;;15.84;51.06;101579.28;5021971;28;1356;-61
2024/02/29 11:21:53;;;;;;;;;;;;;;;15.57;51.66;101573.56;5035789;28;1163;-59
2024/02/29 11:24:22;;;;;;;;;;;;;;;17.02;48.52;101569.16;5036122;28;1395;-60
2024/02/29 11:26:57;;;;;;;;;;;;;;;17.27;47.65;101563.09;5036391;28;1094;-57
2024/02/29 11:29:22;;;;;;;;;;;;;;;16.43;49.61;101565.06;5036952;28;1180;-62
2024/02/29 11:31:48;;;;;;;;;;;;;;;16.04;50.85;101564.25;5036279;28;1070;-61
2024/02/29 11:34:17;;;;;;;;;;;;;;;15.94;50.79;101562.16;5036133;28;900;-63
2024/02/29 11:36:49;;;;;;;;;;;;;;;15.66;51.48;101552.91;5035443;28;1906;-59
2024/02/29 11:39:17;;;;;;;;;;;;;;;15.50;51.78;101550.97;5031202;28;1178;-60
2024/02/29 11:41:42;;;;;;;;;;;;;;;16.98;48.59;101548.75;5036369;28;1134;-61
2024/02/29 11:44:08;;;;;;;;;;;;;;;17.49;47.08;101539.38;5036051;28;1047;-60
2024/02/29 11:46:33;;;;;;;;;;;;;;;16.30;49.82;101529.78;5036203;28;887;-57
2024/02/29 11:48:59;;;;;;;;;;;;;;;16.10;50.29;101543.19;5035914;28;1016;-63
2024/02/29 11:51:25;;;;;;;;;;;;;;;15.71;51.40;101544.78;5033570;28;1134;-57
2024/02/29 11:53:50;;;;;;;;;;;;;;;15.63;51.79;101539.69;5035631;28;1064;-59
2024/02/29 11:56:16;;;;;;;;;;;;;;;16.36;50.08;101544.41;5034562;28;1036;-58
2024/02/29 11:58:41;;;;;;;;;;;;;;;17.58;47.13;101540.56;5035486;28;1966;-60
2024/02/29 12:01:07;;;;;;;;;;;;;;;16.74;48.80;101548.19;5036232;28;1062;-59
2024/02/29 12:03:33;;;;;;;;;;;;;;;16.18;50.43;101542.78;5035590;28;1127;-55
2024/02/29 12:05:59;;;;;;;;;;;;;;;15.95;50.70;101536.41;5035964;28;1047;-59
2024/02/29 12:08:28;;;;;;;;;;;;;;;15.72;51.62;101542.84;5024487;28;1274;-55
2024/02/29 12:11:00;;;;;;;;;;;;;;;15.50;52.10;101540.84;5034148;28;1123;-54
2024/02/29 12:13:25;;;;;;;;;;;;;;;16.96;48.56;101530.88;5026055;28;1379;-60
2024/02/29 12:15:52;;;;;;;;;;;;;;;17.72;46.46;101539.03;5035030;28;1103;-60
2024/02/29 12:18:19;;;;;;;;;;;;;;;16.64;48.98;101539.81;5035522;28;1957;-58
2024/02/29 12:20:45;;;;;;;;;;;;;;;16.15;50.09;101543.28;5034846;28;1336;-58
2024/02/29 12:23:14;;;;;;;;;;;;;;;15.88;51.22;101544.78;5035125;28;1020;-58
2024/02/29 12:25:40;;;;;;;;;;;;;;;15.64;51.83;101535.88;5035626;28;1020;-60
2024/02/29 12:28:06;;;;;;;;;;;;;;;16.04;51.06;101532.13;5032923;28;1127;-56
2024/02/29 12:30:31;;;;;;;;;;;;;;;17.47;47.31;101530.56;5040526;28;1090;-59
2024/02/29 12:32:57;;;;;;;;;;;;;;;16.87;48.68;101534.06;5038653;28;1163;-61
2024/02/29 12:35:28;;;;;;;;;;;;;;;16.24;50.09;101525.28;5039261;28;1451;-58
2024/02/29 12:37:53;;;;;;;;;;;;;;;15.96;50.84;101531.75;5039149;28;1918;-59
2024/02/29 12:40:19;;;;;;;;;;;;;;;15.73;51.34;101528.06;5039864;28;1104;-62